Flight Track Log - Related Links

Times and Time Zones

All times are in EDT time to prevent confusion due to time zone crossing. See the SKW5305 flight status page for this flight to view local times or setup timezone preferences in your user account.

Time Position Orientation Groundspeed Altitude Reporting Facility
EDT Latitude Longitude Course Direction KTS MPH feet Rate Location/Type
Wed 10:32:14 PM 45.5931 -122.5922 350° North 133 153 700  Level Seattle Center
Wed 10:32:34 PM 45.6008 -122.6025 317° Northwest 139 160 1,400 1,545 Climbing Seattle Center
Wed 10:33:20 PM 45.6300 -122.6356 322° Northwest 179 206 2,400 1,279 Climbing Seattle Center
Wed 10:33:35 PM 45.6386 -122.6431 329° Northwest 165 190 2,700 1,579 Climbing Seattle Center
Wed 10:34:36 PM 45.6839 -122.6781 332° Northwest 183 211 4,400 1,636 Climbing Seattle Center
Wed 10:35:36 PM 45.7364 -122.6856 354° North 190 219 6,000 1,686 Climbing Seattle Center
Wed 10:36:00 PM 45.9176 -122.6335 352° North  Level FlightAware Approximate
Wed 10:36:37 PM 45.7922 -122.6906 356° North 198 228 7,800  Level Seattle Center
Wed 10:37:00 PM 46.0018 -122.6504 350° North  Level FlightAware Approximate
Wed 10:37:38 PM 45.8464 -122.7000 353° North 197 227 9,600  Level Seattle Center
Wed 10:38:39 PM 45.8983 -122.7100 352° North 190 219 11,400 1,672 Climbing Seattle Center
Wed 10:39:40 PM 45.9506 -122.7200 352° North 190 219 13,000 1,672 Climbing Seattle Center
Wed 10:40:41 PM 46.0036 -122.7317 351° North 192 221 14,800 1,426 Climbing Seattle Center
Wed 10:41:42 PM 46.0556 -122.7392 354° North 189 217 15,900 595 Climbing Seattle Center
Wed 10:42:42 PM 46.1200 -122.7486 354° North 231 266 16,000 50 Climbing Seattle Center
Wed 10:43:43 PM 46.1967 -122.7603 354° North 237 273 16,000 -49 Level Seattle Center
Wed 10:44:44 PM 46.2636 -122.7747 352° North 243 280 15,900 -49 Descending Seattle Center
Wed 10:45:45 PM 46.3303 -122.7878 352° North 244 281 15,900  Level Seattle Center
Wed 10:46:46 PM 46.3981 -122.8008 352° North 248 285 15,900 49 Level Seattle Center
Wed 10:47:47 PM 46.4653 -122.8125 353° North 247 284 16,000 50 Climbing Seattle Center
Wed 10:48:47 PM 46.5322 -122.8247 353° North 246 283 16,000  Level Seattle Center
Wed 10:49:48 PM 46.6006 -122.8361 353° North 248 285 16,000  Level Seattle Center
Wed 10:50:29 PM 46.6567 -122.8489 351° North 248 285 16,000  Level Seattle Center
Wed 10:50:49 PM 46.6681 -122.8486 North 246 283 16,000 -367 Level Seattle Center
Wed 10:51:18 PM 46.7094 -122.8561 353° North 249 287 15,700 -885 Descending Seattle Center
Wed 10:51:50 PM 46.7364 -122.8608 353° North 248 285 15,100 -1,701 Descending Seattle Center
Wed 10:52:25 PM 46.7861 -122.8703 353° North 244 281 13,800 -1,672 Descending Seattle Center
Wed 10:52:51 PM 46.8025 -122.8731 353° North 242 278 13,400 -1,770 Descending Seattle Center
Wed 10:53:26 PM 46.8547 -122.8789 356° North 248 285 12,000 -2,100 Descending Seattle Center
Wed 10:53:51 PM 46.8786 -122.8475 42° Northeast 265 305 11,300 -1,475 Descending Seattle Center
Wed 10:54:27 PM 46.8944 -122.7897 68° East 273 314 10,500 -1,180 Descending Seattle Center
Wed 10:54:52 PM 46.9039 -122.7486 71° East 263 303 10,100 -492 Descending Seattle Center
Wed 10:55:28 PM 46.9175 -122.6964 69° East 246 283 10,000 -98 Descending Seattle Center
Wed 10:55:53 PM 46.9264 -122.6597 70° East 242 278 10,000 -109 Level Seattle Center
Wed 10:56:23 PM 46.9411 -122.6222 60° Northeast 212 244 9,900 -590 Descending Seattle Center
Wed 10:56:54 PM 46.9589 -122.5892 52° Northeast 219 252 9,400 -1,400 Descending Seattle Center
Wed 10:57:23 PM 46.9831 -122.5508 47° Northeast 234 269 8,500 -1,900 Descending Seattle Center
Wed 10:57:54 PM 47.0111 -122.5292 28° Northeast 249 287 7,500 -1,869 Descending Seattle Center
Wed 10:58:24 PM 47.0536 -122.5061 20° North 270 311 6,600 -1,279 Descending Seattle Center
Wed 10:58:55 PM 47.0783 -122.4914 22° Northeast 261 300 6,200 -1,082 Descending Seattle Center
Wed 10:59:25 PM 47.1181 -122.4614 27° Northeast 259 298 5,500 -1,065 Descending Seattle Center
Wed 10:59:57 PM 47.1419 -122.4439 26° Northeast 259 298 5,100 -984 Descending Seattle Center
Wed 11:00:26 PM 47.1833 -122.4128 27° Northeast 261 300 4,500 -984 Descending Seattle Center
Wed 11:00:58 PM 47.2158 -122.3839 31° Northeast 255 293 4,100 -689 Descending Seattle Center
Wed 11:01:27 PM 47.2414 -122.3614 31° Northeast 247 284 3,800 -689 Descending Seattle Center
Wed 11:01:59 PM 47.2719 -122.3350 30° Northeast 241 277 3,400 -537 Descending Seattle Center
Wed 11:02:34 PM 47.3064 -122.3192 17° North 222 255 3,200 -343 Descending Seattle Center

Login

Don't have an account? Register now (free) for customized features, flight alerts, and more!